LFRC/CER METAR and TAF weather

Enter ICAO airport designator
Station Type Date Time Source
LFRC METAR 2022/06/29 00:00 UTC NOAA

LFRC 290000Z AUTO 19009KT 9999 NCD 15/11 Q1014


Station Type Date Time Source
LFRC Decoded METAR 2022/06/29 00:00 UTC NOAA

Cherbourg / Maupertus, France (LFRC) 49-39N 001-28W 139M
Jun 28, 2022 - 08:00 PM EDT / 2022.06.29 0000 UTC
Wind: from the S (190 degrees) at 10 MPH (9 KT):0
Visibility: greater than 7 mile(s):0
Temperature: 59 F (15 C)
Dew Point: 51 F (11 C)
Relative Humidity: 76%
Pressure (altimeter): 29.94 in. Hg (1014 hPa)
ob: LFRC 290000Z AUTO 19009KT 9999 NCD 15/11 Q1014
cycle: 0

Station Type Date Time Source
LFRC TAF 2008/10/12 17:07 UTC NOAA

TAF
AMD LFRC 121707Z 121721 CNL

Example: see airport list